sensor_id;sensor_type;location;lat;lon;timestamp;pressure;altitude;pressure_sealevel;temperature;humidity
56182;BME280;51963;46.052;14.544;2023-06-10T00:02:09;97812.47;;;15.01;100.00
56182;BME280;51963;46.052;14.544;2023-06-10T00:04:34;97812.34;;;14.96;100.00
56182;BME280;51963;46.052;14.544;2023-06-10T00:07:05;97812.13;;;15.09;100.00
56182;BME280;51963;46.052;14.544;2023-06-10T00:09:38;97812.94;;;15.22;100.00
56182;BME280;51963;46.052;14.544;2023-06-10T00:12:08;97805.75;;;15.10;100.00
56182;BME280;51963;46.052;14.544;2023-06-10T00:14:38;97802.75;;;15.07;100.00
56182;BME280;51963;46.052;14.544;2023-06-10T00:17:05;97795.56;;;14.95;100.00
56182;BME280;51963;46.052;14.544;2023-06-10T00:19:38;97812.78;;;14.93;100.00
56182;BME280;51963;46.052;14.544;2023-06-10T00:22:06;97812.09;;;14.86;100.00
56182;BME280;51963;46.052;14.544;2023-06-10T00:24:32;97806.75;;;14.86;100.00
56182;BME280;51963;46.052;14.544;2023-06-10T00:26:58;97806.78;;;15.09;100.00
56182;BME280;51963;46.052;14.544;2023-06-10T00:29:26;97809.25;;;15.11;100.00
56182;BME280;51963;46.052;14.544;2023-06-10T00:31:52;97801.81;;;15.01;100.00
56182;BME280;51963;46.052;14.544;2023-06-10T00:34:23;97803.88;;;14.99;100.00
56182;BME280;51963;46.052;14.544;2023-06-10T00:36:52;97808.63;;;14.97;100.00
56182;BME280;51963;46.052;14.544;2023-06-10T00:39:18;97816.03;;;14.95;100.00
56182;BME280;51963;46.052;14.544;2023-06-10T00:41:44;97810.38;;;14.91;100.00
56182;BME280;51963;46.052;14.544;2023-06-10T00:44:13;97808.75;;;14.90;100.00
56182;BME280;51963;46.052;14.544;2023-06-10T00:46:38;97804.34;;;14.84;100.00
56182;BME280;51963;46.052;14.544;2023-06-10T00:49:10;97793.47;;;14.74;100.00
56182;BME280;51963;46.052;14.544;2023-06-10T00:51:36;97802.41;;;14.61;100.00
56182;BME280;51963;46.052;14.544;2023-06-10T00:54:03;97810.84;;;14.58;100.00
56182;BME280;51963;46.052;14.544;2023-06-10T00:56:30;97813.38;;;14.52;100.00
56182;BME280;51963;46.052;14.544;2023-06-10T00:58:56;97804.63;;;14.64;100.00
56182;BME280;51963;46.052;14.544;2023-06-10T01:01:22;97798.50;;;14.63;100.00
56182;BME280;51963;46.052;14.544;2023-06-10T01:03:49;97798.81;;;14.55;100.00
56182;BME280;51963;46.052;14.544;2023-06-10T01:11:59;97798.94;;;14.60;100.00
56182;BME280;51963;46.052;14.544;2023-06-10T01:14:27;97806.81;;;14.67;100.00
56182;BME280;51963;46.052;14.544;2023-06-10T01:16:54;97809.47;;;14.67;100.00
56182;BME280;51963;46.052;14.544;2023-06-10T01:19:20;97813.63;;;14.63;100.00
56182;BME280;51963;46.052;14.544;2023-06-10T01:21:51;97811.66;;;14.58;100.00
56182;BME280;51963;46.052;14.544;2023-06-10T01:24:18;97809.22;;;14.57;100.00
56182;BME280;51963;46.052;14.544;2023-06-10T01:26:45;97802.88;;;14.58;100.00
56182;BME280;51963;46.052;14.544;2023-06-10T01:29:20;97813.16;;;14.54;100.00
56182;BME280;51963;46.052;14.544;2023-06-10T01:31:51;97801.31;;;14.38;100.00
56182;BME280;51963;46.052;14.544;2023-06-10T01:34:23;97808.63;;;14.43;100.00
56182;BME280;51963;46.052;14.544;2023-06-10T01:36:50;97812.22;;;14.48;100.00
56182;BME280;51963;46.052;14.544;2023-06-10T01:39:20;97804.81;;;14.50;100.00
56182;BME280;51963;46.052;14.544;2023-06-10T01:41:52;97811.03;;;14.44;100.00
56182;BME280;51963;46.052;14.544;2023-06-10T01:44:22;97807.94;;;14.47;100.00
56182;BME280;51963;46.052;14.544;2023-06-10T01:46:48;97802.47;;;14.42;100.00
56182;BME280;51963;46.052;14.544;2023-06-10T01:49:14;97804.41;;;14.35;100.00
56182;BME280;51963;46.052;14.544;2023-06-10T01:51:43;97804.19;;;14.36;100.00
56182;BME280;51963;46.052;14.544;2023-06-10T01:54:09;97812.03;;;14.31;100.00
56182;BME280;51963;46.052;14.544;2023-06-10T01:56:35;97809.25;;;14.26;100.00
56182;BME280;51963;46.052;14.544;2023-06-10T01:59:01;97801.03;;;14.28;100.00
56182;BME280;51963;46.052;14.544;2023-06-10T02:01:29;97803.50;;;14.41;100.00
56182;BME280;51963;46.052;14.544;2023-06-10T02:03:55;97808.09;;;14.34;100.00
56182;BME280;51963;46.052;14.544;2023-06-10T02:06:21;97818.28;;;14.37;100.00
56182;BME280;51963;46.052;14.544;2023-06-10T02:08:47;97807.44;;;14.38;100.00
56182;BME280;51963;46.052;14.544;2023-06-10T02:11:13;97807.53;;;14.32;100.00
56182;BME280;51963;46.052;14.544;2023-06-10T02:13:39;97811.63;;;14.16;100.00
56182;BME280;51963;46.052;14.544;2023-06-10T02:16:05;97803.28;;;14.12;100.00
56182;BME280;51963;46.052;14.544;2023-06-10T02:18:34;97809.78;;;14.16;100.00
56182;BME280;51963;46.052;14.544;2023-06-10T02:21:07;97811.41;;;14.17;100.00
56182;BME280;51963;46.052;14.544;2023-06-10T02:23:33;97813.78;;;14.07;100.00
56182;BME280;51963;46.052;14.544;2023-06-10T02:26:02;97812.28;;;14.11;100.00
56182;BME280;51963;46.052;14.544;2023-06-10T02:28:28;97810.78;;;14.03;100.00
56182;BME280;51963;46.052;14.544;2023-06-10T02:30:53;97809.94;;;14.03;100.00
56182;BME280;51963;46.052;14.544;2023-06-10T02:33:20;97806.63;;;14.07;100.00
56182;BME280;51963;46.052;14.544;2023-06-10T02:35:46;97811.56;;;14.04;100.00
56182;BME280;51963;46.052;14.544;2023-06-10T02:38:15;97812.25;;;13.99;100.00
56182;BME280;51963;46.052;14.544;2023-06-10T02:40:40;97803.41;;;13.87;100.00
56182;BME280;51963;46.052;14.544;2023-06-10T02:43:13;97811.50;;;14.11;100.00
56182;BME280;51963;46.052;14.544;2023-06-10T02:45:39;97802.22;;;14.01;100.00
56182;BME280;51963;46.052;14.544;2023-06-10T02:48:06;97810.25;;;13.94;100.00
56182;BME280;51963;46.052;14.544;2023-06-10T02:50:33;97810.94;;;13.90;100.00
56182;BME280;51963;46.052;14.544;2023-06-10T02:53:19;97810.41;;;14.00;100.00
56182;BME280;51963;46.052;14.544;2023-06-10T02:55:51;97789.97;;;13.82;100.00
56182;BME280;51963;46.052;14.544;2023-06-10T02:58:20;97814.97;;;13.92;100.00
56182;BME280;51963;46.052;14.544;2023-06-10T03:00:46;97801.94;;;13.91;100.00
56182;BME280;51963;46.052;14.544;2023-06-10T03:03:13;97802.53;;;13.93;100.00
56182;BME280;51963;46.052;14.544;2023-06-10T03:06:00;97802.88;;;13.78;100.00
56182;BME280;51963;46.052;14.544;2023-06-10T03:08:31;97807.16;;;13.79;100.00
56182;BME280;51963;46.052;14.544;2023-06-10T03:10:59;97807.56;;;13.64;100.00
56182;BME280;51963;46.052;14.544;2023-06-10T03:13:30;97812.72;;;13.59;100.00
56182;BME280;51963;46.052;14.544;2023-06-10T03:15:57;97805.09;;;13.62;100.00
56182;BME280;51963;46.052;14.544;2023-06-10T03:18:26;97816.16;;;13.59;100.00
56182;BME280;51963;46.052;14.544;2023-06-10T03:20:56;97800.75;;;13.68;100.00
56182;BME280;51963;46.052;14.544;2023-06-10T03:23:24;97811.69;;;13.78;100.00
56182;BME280;51963;46.052;14.544;2023-06-10T03:25:50;97795.31;;;13.63;100.00
56182;BME280;51963;46.052;14.544;2023-06-10T03:28:18;97815.22;;;13.72;100.00
56182;BME280;51963;46.052;14.544;2023-06-10T03:30:44;97822.81;;;13.87;100.00
56182;BME280;51963;46.052;14.544;2023-06-10T03:33:10;97824.44;;;13.88;100.00
56182;BME280;51963;46.052;14.544;2023-06-10T03:35:38;97828.13;;;13.87;100.00
56182;BME280;51963;46.052;14.544;2023-06-10T03:38:05;97835.06;;;13.88;100.00
56182;BME280;51963;46.052;14.544;2023-06-10T03:40:31;97834.84;;;14.08;100.00
56182;BME280;51963;46.052;14.544;2023-06-10T03:42:59;97837.78;;;14.19;100.00
56182;BME280;51963;46.052;14.544;2023-06-10T03:45:26;97838.06;;;14.29;100.00
56182;BME280;51963;46.052;14.544;2023-06-10T03:47:54;97841.78;;;14.40;100.00
56182;BME280;51963;46.052;14.544;2023-06-10T03:50:26;97851.88;;;14.50;100.00
56182;BME280;51963;46.052;14.544;2023-06-10T03:52:52;97846.69;;;14.55;100.00
56182;BME280;51963;46.052;14.544;2023-06-10T03:55:22;97835.81;;;14.57;100.00
56182;BME280;51963;46.052;14.544;2023-06-10T03:57:52;97837.00;;;14.61;100.00
56182;BME280;51963;46.052;14.544;2023-06-10T04:00:21;97841.28;;;14.62;100.00
56182;BME280;51963;46.052;14.544;2023-06-10T04:02:47;97842.75;;;14.58;100.00
56182;BME280;51963;46.052;14.544;2023-06-10T04:05:40;97836.28;;;14.53;100.00
56182;BME280;51963;46.052;14.544;2023-06-10T04:08:12;97839.97;;;14.52;100.00
56182;BME280;51963;46.052;14.544;2023-06-10T04:10:38;97845.66;;;14.56;100.00
56182;BME280;51963;46.052;14.544;2023-06-10T04:13:04;97844.25;;;14.53;100.00
56182;BME280;51963;46.052;14.544;2023-06-10T04:15:35;97841.97;;;14.57;100.00
56182;BME280;51963;46.052;14.544;2023-06-10T04:18:06;97848.22;;;14.63;100.00
56182;BME280;51963;46.052;14.544;2023-06-10T04:20:32;97849.38;;;14.67;100.00
56182;BME280;51963;46.052;14.544;2023-06-10T04:22:58;97851.00;;;14.68;100.00
56182;BME280;51963;46.052;14.544;2023-06-10T04:25:26;97849.78;;;14.71;100.00
56182;BME280;51963;46.052;14.544;2023-06-10T04:27:53;97849.34;;;14.86;100.00
56182;BME280;51963;46.052;14.544;2023-06-10T04:30:19;97853.66;;;14.99;100.00
56182;BME280;51963;46.052;14.544;2023-06-10T04:32:50;97850.06;;;14.93;100.00
56182;BME280;51963;46.052;14.544;2023-06-10T04:35:17;97843.13;;;14.92;100.00
56182;BME280;51963;46.052;14.544;2023-06-10T04:37:45;97843.09;;;14.80;100.00
56182;BME280;51963;46.052;14.544;2023-06-10T04:40:11;97845.09;;;14.96;100.00
56182;BME280;51963;46.052;14.544;2023-06-10T04:42:37;97851.47;;;15.07;100.00
56182;BME280;51963;46.052;14.544;2023-06-10T04:45:04;97831.09;;;15.01;100.00
56182;BME280;51963;46.052;14.544;2023-06-10T04:47:30;97825.19;;;15.23;100.00
56182;BME280;51963;46.052;14.544;2023-06-10T04:50:02;97845.81;;;15.63;100.00
56182;BME280;51963;46.052;14.544;2023-06-10T04:52:29;97848.69;;;15.74;100.00
56182;BME280;51963;46.052;14.544;2023-06-10T04:54:57;97843.97;;;15.64;100.00
56182;BME280;51963;46.052;14.544;2023-06-10T04:57:23;97844.50;;;15.78;100.00
56182;BME280;51963;46.052;14.544;2023-06-10T04:59:50;97846.50;;;15.70;100.00
56182;BME280;51963;46.052;14.544;2023-06-10T05:02:15;97845.19;;;15.85;100.00
56182;BME280;51963;46.052;14.544;2023-06-10T05:04:41;97845.19;;;15.85;100.00
56182;BME280;51963;46.052;14.544;2023-06-10T05:07:07;97840.13;;;15.95;100.00
56182;BME280;51963;46.052;14.544;2023-06-10T05:09:35;97847.13;;;16.13;100.00
56182;BME280;51963;46.052;14.544;2023-06-10T05:12:01;97849.69;;;16.20;100.00
56182;BME280;51963;46.052;14.544;2023-06-10T05:14:28;97842.44;;;16.04;100.00
56182;BME280;51963;46.052;14.544;2023-06-10T05:16:54;97848.16;;;16.24;100.00
56182;BME280;51963;46.052;14.544;2023-06-10T05:19:20;97837.78;;;16.11;100.00
56182;BME280;51963;46.052;14.544;2023-06-10T05:21:46;97837.88;;;16.04;100.00
56182;BME280;51963;46.052;14.544;2023-06-10T05:24:12;97838.81;;;16.39;100.00
56182;BME280;51963;46.052;14.544;2023-06-10T05:26:38;97851.41;;;16.55;100.00
56182;BME280;51963;46.052;14.544;2023-06-10T05:29:05;97854.06;;;16.55;100.00
56182;BME280;51963;46.052;14.544;2023-06-10T05:31:33;97833.97;;;16.36;100.00
56182;BME280;51963;46.052;14.544;2023-06-10T05:33:59;97839.69;;;16.27;100.00
56182;BME280;51963;46.052;14.544;2023-06-10T05:36:25;97850.25;;;16.22;100.00
56182;BME280;51963;46.052;14.544;2023-06-10T05:38:53;97838.34;;;16.42;100.00
56182;BME280;51963;46.052;14.544;2023-06-10T05:41:21;97841.97;;;16.36;100.00
56182;BME280;51963;46.052;14.544;2023-06-10T05:43:48;97842.63;;;16.72;100.00
56182;BME280;51963;46.052;14.544;2023-06-10T05:46:16;97838.41;;;16.76;100.00
56182;BME280;51963;46.052;14.544;2023-06-10T05:48:43;97849.72;;;16.66;100.00
56182;BME280;51963;46.052;14.544;2023-06-10T05:51:12;97833.78;;;16.71;100.00
56182;BME280;51963;46.052;14.544;2023-06-10T05:53:38;97849.75;;;16.83;100.00
56182;BME280;51963;46.052;14.544;2023-06-10T05:56:08;97849.66;;;16.78;100.00
56182;BME280;51963;46.052;14.544;2023-06-10T05:58:35;97848.03;;;16.77;100.00
56182;BME280;51963;46.052;14.544;2023-06-10T06:01:00;97851.84;;;16.81;100.00
56182;BME280;51963;46.052;14.544;2023-06-10T06:03:28;97852.16;;;16.85;100.00
56182;BME280;51963;46.052;14.544;2023-06-10T06:05:54;97850.59;;;17.01;100.00
56182;BME280;51963;46.052;14.544;2023-06-10T06:08:20;97856.91;;;17.29;100.00
56182;BME280;51963;46.052;14.544;2023-06-10T06:10:49;97856.31;;;16.93;100.00
56182;BME280;51963;46.052;14.544;2023-06-10T06:13:17;97863.53;;;17.26;100.00
56182;BME280;51963;46.052;14.544;2023-06-10T06:15:53;97850.59;;;17.74;100.00
56182;BME280;51963;46.052;14.544;2023-06-10T06:18:21;97857.69;;;17.47;100.00
56182;BME280;51963;46.052;14.544;2023-06-10T06:20:50;97853.75;;;17.71;100.00
56182;BME280;51963;46.052;14.544;2023-06-10T06:23:16;97849.06;;;17.62;100.00
56182;BME280;51963;46.052;14.544;2023-06-10T06:25:45;97851.72;;;17.79;100.00
56182;BME280;51963;46.052;14.544;2023-06-10T06:28:11;97844.16;;;17.53;100.00
56182;BME280;51963;46.052;14.544;2023-06-10T06:30:39;97847.09;;;17.52;100.00
56182;BME280;51963;46.052;14.544;2023-06-10T06:33:05;97858.91;;;17.56;100.00
56182;BME280;51963;46.052;14.544;2023-06-10T06:35:32;97854.91;;;17.58;100.00
56182;BME280;51963;46.052;14.544;2023-06-10T06:37:59;97835.63;;;17.73;100.00
56182;BME280;51963;46.052;14.544;2023-06-10T06:40:28;97850.22;;;17.88;100.00
56182;BME280;51963;46.052;14.544;2023-06-10T06:42:56;97850.94;;;18.00;100.00
56182;BME280;51963;46.052;14.544;2023-06-10T06:45:43;97853.66;;;18.28;100.00
56182;BME280;51963;46.052;14.544;2023-06-10T06:48:08;97857.06;;;18.45;100.00
56182;BME280;51963;46.052;14.544;2023-06-10T06:50:34;97845.72;;;18.60;100.00
56182;BME280;51963;46.052;14.544;2023-06-10T06:53:03;97841.94;;;18.84;100.00
56182;BME280;51963;46.052;14.544;2023-06-10T06:55:31;97846.00;;;19.19;100.00
56182;BME280;51963;46.052;14.544;2023-06-10T06:57:57;97846.53;;;18.94;100.00
56182;BME280;51963;46.052;14.544;2023-06-10T07:00:24;97849.34;;;19.04;100.00
56182;BME280;51963;46.052;14.544;2023-06-10T07:02:49;97847.47;;;19.42;100.00
56182;BME280;51963;46.052;14.544;2023-06-10T07:05:15;97841.97;;;19.64;100.00
56182;BME280;51963;46.052;14.544;2023-06-10T07:07:41;97837.50;;;19.81;100.00
56182;BME280;51963;46.052;14.544;2023-06-10T07:10:09;97834.69;;;20.03;100.00
56182;BME280;51963;46.052;14.544;2023-06-10T07:12:35;97835.00;;;20.22;100.00
56182;BME280;51963;46.052;14.544;2023-06-10T07:15:01;97824.66;;;19.88;100.00
56182;BME280;51963;46.052;14.544;2023-06-10T07:17:27;97841.25;;;20.48;100.00
56182;BME280;51963;46.052;14.544;2023-06-10T07:19:53;97824.38;;;20.84;100.00
56182;BME280;51963;46.052;14.544;2023-06-10T07:22:19;97842.66;;;21.29;97.91
56182;BME280;51963;46.052;14.544;2023-06-10T07:24:45;97836.19;;;21.14;96.36
56182;BME280;51963;46.052;14.544;2023-06-10T07:27:10;97829.44;;;20.44;100.00
56182;BME280;51963;46.052;14.544;2023-06-10T07:29:36;97851.53;;;21.03;100.00
56182;BME280;51963;46.052;14.544;2023-06-10T07:32:05;97842.13;;;20.80;100.00
56182;BME280;51963;46.052;14.544;2023-06-10T07:34:31;97843.19;;;20.89;100.00
56182;BME280;51963;46.052;14.544;2023-06-10T07:36:57;97843.44;;;20.72;100.00
56182;BME280;51963;46.052;14.544;2023-06-10T07:39:23;97852.88;;;21.01;98.09
56182;BME280;51963;46.052;14.544;2023-06-10T07:41:49;97835.38;;;21.39;95.86
56182;BME280;51963;46.052;14.544;2023-06-10T07:44:15;97854.13;;;21.86;92.86
56182;BME280;51963;46.052;14.544;2023-06-10T07:46:43;97821.44;;;22.19;92.33
56182;BME280;51963;46.052;14.544;2023-06-10T07:49:11;97838.59;;;22.33;91.05
56182;BME280;51963;46.052;14.544;2023-06-10T07:51:37;97831.09;;;22.25;92.58
56182;BME280;51963;46.052;14.544;2023-06-10T07:54:05;97836.81;;;23.33;87.79
56182;BME280;51963;46.052;14.544;2023-06-10T07:56:31;97830.84;;;23.60;85.11
56182;BME280;51963;46.052;14.544;2023-06-10T07:59:00;97832.09;;;23.73;86.20
56182;BME280;51963;46.052;14.544;2023-06-10T08:01:26;97832.41;;;23.07;89.63
56182;BME280;51963;46.052;14.544;2023-06-10T08:03:52;97831.38;;;23.86;83.45
56182;BME280;51963;46.052;14.544;2023-06-10T08:06:18;97826.72;;;24.16;82.09
56182;BME280;51963;46.052;14.544;2023-06-10T08:08:47;97828.19;;;24.66;79.72
56182;BME280;51963;46.052;14.544;2023-06-10T08:11:13;97833.09;;;24.83;79.32
56182;BME280;51963;46.052;14.544;2023-06-10T08:13:41;97829.72;;;23.91;81.69
56182;BME280;51963;46.052;14.544;2023-06-10T08:16:07;97835.38;;;24.76;82.19
56182;BME280;51963;46.052;14.544;2023-06-10T08:18:33;97830.03;;;24.33;82.56
56182;BME280;51963;46.052;14.544;2023-06-10T08:20:59;97841.31;;;23.67;85.88
56182;BME280;51963;46.052;14.544;2023-06-10T08:23:25;97834.22;;;23.76;87.28
56182;BME280;51963;46.052;14.544;2023-06-10T08:25:51;97832.72;;;24.52;85.29
56182;BME280;51963;46.052;14.544;2023-06-10T08:28:18;97819.59;;;25.30;77.81
56182;BME280;51963;46.052;14.544;2023-06-10T08:30:46;97831.28;;;25.87;75.10
56182;BME280;51963;46.052;14.544;2023-06-10T08:33:15;97826.94;;;26.28;73.26
56182;BME280;51963;46.052;14.544;2023-06-10T08:35:41;97824.44;;;26.17;71.98
56182;BME280;51963;46.052;14.544;2023-06-10T08:38:07;97832.38;;;25.11;76.36
56182;BME280;51963;46.052;14.544;2023-06-10T08:40:33;97811.41;;;26.19;73.11
56182;BME280;51963;46.052;14.544;2023-06-10T08:43:06;97828.13;;;26.35;69.57
56182;BME280;51963;46.052;14.544;2023-06-10T08:45:36;97829.00;;;26.45;70.26
56182;BME280;51963;46.052;14.544;2023-06-10T08:48:05;97819.44;;;26.47;71.13
56182;BME280;51963;46.052;14.544;2023-06-10T08:50:36;97809.44;;;26.71;70.88
56182;BME280;51963;46.052;14.544;2023-06-10T08:53:05;97820.50;;;27.29;68.92
56182;BME280;51963;46.052;14.544;2023-06-10T08:55:38;97822.09;;;27.52;66.12
56182;BME280;51963;46.052;14.544;2023-06-10T08:58:07;97823.00;;;27.16;68.55
56182;BME280;51963;46.052;14.544;2023-06-10T09:00:36;97819.56;;;26.42;69.77
56182;BME280;51963;46.052;14.544;2023-06-10T09:03:04;97810.03;;;25.52;75.67
56182;BME280;51963;46.052;14.544;2023-06-10T09:05:34;97813.13;;;26.52;73.83
56182;BME280;51963;46.052;14.544;2023-06-10T09:08:02;97824.34;;;27.59;66.91
56182;BME280;51963;46.052;14.544;2023-06-10T09:10:28;97816.66;;;27.21;67.13
56182;BME280;51963;46.052;14.544;2023-06-10T09:12:56;97812.66;;;26.73;72.35
56182;BME280;51963;46.052;14.544;2023-06-10T09:15:22;97803.81;;;27.76;70.64
56182;BME280;51963;46.052;14.544;2023-06-10T09:17:49;97807.19;;;27.90;66.03
56182;BME280;51963;46.052;14.544;2023-06-10T09:20:15;97809.81;;;28.13;64.15
56182;BME280;51963;46.052;14.544;2023-06-10T09:22:44;97812.56;;;27.32;68.84
56182;BME280;51963;46.052;14.544;2023-06-10T09:25:11;97806.38;;;27.09;69.55
56182;BME280;51963;46.052;14.544;2023-06-10T09:27:51;97805.22;;;27.64;65.75
56182;BME280;51963;46.052;14.544;2023-06-10T09:30:27;97803.97;;;27.79;67.83
56182;BME280;51963;46.052;14.544;2023-06-10T09:32:54;97804.19;;;28.01;64.93
56182;BME280;51963;46.052;14.544;2023-06-10T09:35:28;97798.94;;;26.92;73.63
56182;BME280;51963;46.052;14.544;2023-06-10T09:37:56;97787.38;;;27.09;68.68
56182;BME280;51963;46.052;14.544;2023-06-10T09:40:23;97793.03;;;27.53;69.14
56182;BME280;51963;46.052;14.544;2023-06-10T09:42:54;97789.03;;;28.44;63.94
56182;BME280;51963;46.052;14.544;2023-06-10T09:45:21;97790.16;;;28.16;63.65
56182;BME280;51963;46.052;14.544;2023-06-10T09:47:51;97783.91;;;28.07;65.47
56182;BME280;51963;46.052;14.544;2023-06-10T09:50:17;97792.75;;;26.77;70.49
56182;BME280;51963;46.052;14.544;2023-06-10T09:52:46;97795.22;;;26.65;70.31
56182;BME280;51963;46.052;14.544;2023-06-10T09:55:12;97797.13;;;27.10;71.65
56182;BME280;51963;46.052;14.544;2023-06-10T09:57:39;97797.13;;;27.82;67.06
56182;BME280;51963;46.052;14.544;2023-06-10T10:00:07;97795.94;;;28.23;65.63
56182;BME280;51963;46.052;14.544;2023-06-10T10:02:51;97776.44;;;28.21;66.30
56182;BME280;51963;46.052;14.544;2023-06-10T10:05:18;97790.81;;;28.31;64.23
56182;BME280;51963;46.052;14.544;2023-06-10T10:07:45;97788.34;;;27.94;65.99
56182;BME280;51963;46.052;14.544;2023-06-10T10:10:13;97782.81;;;28.25;61.29
56182;BME280;51963;46.052;14.544;2023-06-10T10:12:41;97786.66;;;28.24;61.44
56182;BME280;51963;46.052;14.544;2023-06-10T10:15:08;97782.91;;;27.94;63.59
56182;BME280;51963;46.052;14.544;2023-06-10T10:17:35;97775.63;;;27.54;66.51
56182;BME280;51963;46.052;14.544;2023-06-10T10:20:04;97774.69;;;29.26;62.00
56182;BME280;51963;46.052;14.544;2023-06-10T10:22:39;97780.09;;;29.44;57.95
56182;BME280;51963;46.052;14.544;2023-06-10T10:25:23;97769.72;;;26.89;66.66
56182;BME280;51963;46.052;14.544;2023-06-10T10:30:40;97766.88;;;27.66;63.91
56182;BME280;51963;46.052;14.544;2023-06-10T10:33:30;97766.19;;;28.53;60.18
56182;BME280;51963;46.052;14.544;2023-06-10T10:36:00;97758.66;;;29.72;55.52
56182;BME280;51963;46.052;14.544;2023-06-10T10:38:27;97765.63;;;29.52;53.94
56182;BME280;51963;46.052;14.544;2023-06-10T10:40:53;97770.00;;;28.88;58.74
56182;BME280;51963;46.052;14.544;2023-06-10T10:43:21;97760.09;;;28.48;62.21
56182;BME280;51963;46.052;14.544;2023-06-10T10:46:00;97760.25;;;28.78;61.59
56182;BME280;51963;46.052;14.544;2023-06-10T10:48:37;97752.94;;;28.43;59.07
56182;BME280;51963;46.052;14.544;2023-06-10T10:51:03;97763.28;;;28.06;59.55
56182;BME280;51963;46.052;14.544;2023-06-10T10:53:29;97741.91;;;28.13;62.41
56182;BME280;51963;46.052;14.544;2023-06-10T10:56:14;97758.53;;;28.20;62.77
56182;BME280;51963;46.052;14.544;2023-06-10T10:59:03;97768.22;;;27.46;64.92
56182;BME280;51963;46.052;14.544;2023-06-10T11:01:40;97741.38;;;26.72;66.85
56182;BME280;51963;46.052;14.544;2023-06-10T11:04:07;97760.47;;;26.90;67.58
56182;BME280;51963;46.052;14.544;2023-06-10T11:06:34;97753.59;;;26.84;67.17
56182;BME280;51963;46.052;14.544;2023-06-10T11:09:00;97747.53;;;26.87;66.72
56182;BME280;51963;46.052;14.544;2023-06-10T11:11:27;97743.38;;;26.21;68.84
56182;BME280;51963;46.052;14.544;2023-06-10T11:16:40;97731.13;;;26.24;70.13
56182;BME280;51963;46.052;14.544;2023-06-10T11:19:07;97725.22;;;26.21;69.40
56182;BME280;51963;46.052;14.544;2023-06-10T11:21:49;97730.78;;;26.62;73.61
56182;BME280;51963;46.052;14.544;2023-06-10T11:24:22;97727.34;;;27.02;68.68
56182;BME280;51963;46.052;14.544;2023-06-10T11:26:48;97732.38;;;27.66;70.66
56182;BME280;51963;46.052;14.544;2023-06-10T11:29:19;97713.00;;;26.78;68.25
56182;BME280;51963;46.052;14.544;2023-06-10T11:31:49;97724.75;;;26.65;69.25
56182;BME280;51963;46.052;14.544;2023-06-10T11:34:21;97722.06;;;27.37;72.70
56182;BME280;51963;46.052;14.544;2023-06-10T11:36:49;97707.94;;;27.17;68.82
56182;BME280;51963;46.052;14.544;2023-06-10T11:39:17;97702.34;;;26.50;67.63
56182;BME280;51963;46.052;14.544;2023-06-10T11:41:45;97714.59;;;27.02;66.22
56182;BME280;51963;46.052;14.544;2023-06-10T11:44:13;97723.00;;;26.92;65.65
56182;BME280;51963;46.052;14.544;2023-06-10T11:46:40;97724.75;;;26.65;68.12
56182;BME280;51963;46.052;14.544;2023-06-10T11:49:08;97719.25;;;26.56;72.99
56182;BME280;51963;46.052;14.544;2023-06-10T11:51:36;97716.13;;;26.03;79.80
56182;BME280;51963;46.052;14.544;2023-06-10T11:54:03;97710.56;;;25.86;82.28
56182;BME280;51963;46.052;14.544;2023-06-10T11:56:30;97716.75;;;25.86;82.93
56182;BME280;51963;46.052;14.544;2023-06-10T11:59:02;97712.34;;;25.90;83.38
56182;BME280;51963;46.052;14.544;2023-06-10T12:01:33;97710.25;;;26.24;82.25
56182;BME280;51963;46.052;14.544;2023-06-10T12:04:08;97705.13;;;26.45;81.03
56182;BME280;51963;46.052;14.544;2023-06-10T12:06:40;97701.81;;;26.71;77.41
56182;BME280;51963;46.052;14.544;2023-06-10T12:09:12;97693.50;;;27.40;74.62
56182;BME280;51963;46.052;14.544;2023-06-10T12:11:39;97688.78;;;27.72;74.89
56182;BME280;51963;46.052;14.544;2023-06-10T12:14:05;97689.44;;;28.13;72.09
56182;BME280;51963;46.052;14.544;2023-06-10T12:16:31;97688.91;;;28.63;67.88
56182;BME280;51963;46.052;14.544;2023-06-10T12:19:04;97683.72;;;28.32;72.33
56182;BME280;51963;46.052;14.544;2023-06-10T12:21:32;97686.41;;;27.79;71.61
56182;BME280;51963;46.052;14.544;2023-06-10T12:24:07;97688.50;;;27.33;73.62
56182;BME280;51963;46.052;14.544;2023-06-10T12:26:44;97694.53;;;26.80;75.50
56182;BME280;51963;46.052;14.544;2023-06-10T12:29:20;97698.72;;;26.87;75.93
56182;BME280;51963;46.052;14.544;2023-06-10T12:31:56;97705.47;;;26.44;76.89
56182;BME280;51963;46.052;14.544;2023-06-10T12:34:39;97712.88;;;26.15;77.81
56182;BME280;51963;46.052;14.544;2023-06-10T12:37:09;97702.53;;;25.81;80.17
56182;BME280;51963;46.052;14.544;2023-06-10T12:39:39;97727.44;;;25.55;80.57
56182;BME280;51963;46.052;14.544;2023-06-10T12:42:06;97718.38;;;24.89;82.58
56182;BME280;51963;46.052;14.544;2023-06-10T12:44:38;97712.97;;;24.89;80.17
56182;BME280;51963;46.052;14.544;2023-06-10T12:47:11;97714.38;;;25.43;81.65
56182;BME280;51963;46.052;14.544;2023-06-10T12:49:40;97686.53;;;25.28;77.15
56182;BME280;51963;46.052;14.544;2023-06-10T12:52:06;97716.19;;;25.05;77.32
56182;BME280;51963;46.052;14.544;2023-06-10T12:54:35;97707.16;;;24.96;80.89
56182;BME280;51963;46.052;14.544;2023-06-10T12:57:02;97702.28;;;24.65;81.86
56182;BME280;51963;46.052;14.544;2023-06-10T12:59:31;97703.47;;;24.59;83.53
56182;BME280;51963;46.052;14.544;2023-06-10T13:01:57;97703.53;;;24.54;84.84
56182;BME280;51963;46.052;14.544;2023-06-10T13:04:23;97695.44;;;24.73;81.56